createdAt,value
2022-12-17T00:04:06.000Z,94.0
2022-12-17T00:34:12.000Z,94.0
2022-12-17T01:04:14.000Z,94.0
2022-12-17T01:34:19.000Z,94.0
2022-12-17T02:04:20.000Z,95.0
2022-12-17T02:34:22.000Z,95.0
2022-12-17T03:04:32.000Z,96.0
2022-12-17T03:34:35.000Z,94.0
2022-12-17T04:04:45.000Z,94.0
2022-12-17T04:34:46.000Z,94.0
2022-12-17T05:04:49.000Z,94.0
2022-12-17T05:34:57.000Z,94.0
2022-12-17T06:05:01.000Z,94.0
2022-12-17T06:35:04.000Z,93.0
2022-12-17T07:05:06.000Z,93.0
2022-12-17T07:35:16.000Z,94.0
2022-12-17T08:05:19.000Z,95.0
2022-12-17T08:35:21.000Z,95.0
2022-12-17T09:05:29.000Z,94.0
2022-12-17T09:35:39.000Z,92.0
2022-12-17T10:05:43.000Z,92.0
2022-12-17T10:35:48.000Z,89.0
2022-12-17T11:05:52.000Z,88.0
2022-12-17T11:36:01.000Z,90.0
2022-12-17T12:06:05.000Z,91.0
2022-12-17T12:36:08.000Z,92.0
2022-12-17T13:06:11.000Z,92.0
2022-12-17T13:36:16.000Z,91.0
2022-12-17T14:08:01.000Z,91.0
2022-12-17T14:38:02.000Z,92.0
2022-12-17T15:08:07.000Z,92.0
2022-12-17T15:38:09.000Z,92.0
2022-12-17T16:08:19.000Z,93.0
2022-12-17T16:38:27.000Z,94.0
2022-12-17T17:08:35.000Z,94.0
2022-12-17T17:38:36.000Z,94.0
2022-12-17T18:08:41.000Z,94.0
2022-12-17T18:38:43.000Z,96.0
2022-12-17T19:08:46.000Z,95.0
2022-12-17T19:38:53.000Z,94.0
2022-12-17T20:08:58.000Z,94.0
2022-12-17T20:39:05.000Z,93.0
2022-12-17T21:09:06.000Z,92.0
2022-12-17T21:39:08.000Z,94.0
2022-12-17T22:09:13.000Z,92.0
2022-12-17T22:09:24.000Z,92.0
2022-12-17T22:45:36.000Z,91.0
2022-12-17T22:45:57.000Z,91.0
2022-12-17T22:46:08.000Z,91.0
2022-12-17T22:46:28.000Z,91.0
2022-12-17T22:46:39.000Z,91.0
2022-12-17T22:46:49.000Z,91.0
2022-12-17T22:46:59.000Z,91.0
2022-12-17T22:47:10.000Z,91.0
2022-12-17T22:47:20.000Z,91.0
2022-12-17T22:47:31.000Z,91.0
2022-12-17T22:47:41.000Z,91.0
2022-12-17T23:25:38.000Z,91.0
2022-12-17T23:26:10.000Z,91.0
